sensor_id;sensor_type;location;lat;lon;timestamp;P1;durP1;ratioP1;P2;durP2;ratioP2
80334;SDS011;69653;52.674;13.574;2024-02-21T00:00:10;15.20;;;6.07;;
80334;SDS011;69653;52.674;13.574;2024-02-21T00:02:36;20.48;;;7.50;;
80334;SDS011;69653;52.674;13.574;2024-02-21T00:05:02;19.85;;;6.50;;
80334;SDS011;69653;52.674;13.574;2024-02-21T00:07:27;22.83;;;6.72;;
80334;SDS011;69653;52.674;13.574;2024-02-21T00:09:52;15.37;;;5.87;;
80334;SDS011;69653;52.674;13.574;2024-02-21T00:12:18;18.70;;;6.23;;
80334;SDS011;69653;52.674;13.574;2024-02-21T00:14:43;15.03;;;5.63;;
80334;SDS011;69653;52.674;13.574;2024-02-21T00:17:08;24.40;;;6.50;;
80334;SDS011;69653;52.674;13.574;2024-02-21T00:19:34;13.27;;;6.07;;
80334;SDS011;69653;52.674;13.574;2024-02-21T00:21:59;20.50;;;6.43;;
80334;SDS011;69653;52.674;13.574;2024-02-21T00:24:24;15.70;;;5.90;;
80334;SDS011;69653;52.674;13.574;2024-02-21T00:26:49;21.43;;;5.90;;
80334;SDS011;69653;52.674;13.574;2024-02-21T00:29:14;12.30;;;4.70;;
80334;SDS011;69653;52.674;13.574;2024-02-21T00:31:40;14.93;;;6.27;;
80334;SDS011;69653;52.674;13.574;2024-02-21T00:34:05;14.50;;;5.37;;
80334;SDS011;69653;52.674;13.574;2024-02-21T00:36:30;15.27;;;5.73;;
80334;SDS011;69653;52.674;13.574;2024-02-21T00:38:55;11.93;;;4.97;;
80334;SDS011;69653;52.674;13.574;2024-02-21T00:41:21;14.00;;;5.27;;
80334;SDS011;69653;52.674;13.574;2024-02-21T00:43:46;16.40;;;6.00;;
80334;SDS011;69653;52.674;13.574;2024-02-21T00:46:13;18.60;;;7.07;;
80334;SDS011;69653;52.674;13.574;2024-02-21T00:48:38;18.20;;;5.77;;
80334;SDS011;69653;52.674;13.574;2024-02-21T00:51:03;22.50;;;5.37;;
80334;SDS011;69653;52.674;13.574;2024-02-21T00:53:29;15.10;;;4.80;;
80334;SDS011;69653;52.674;13.574;2024-02-21T00:55:54;14.73;;;5.67;;
80334;SDS011;69653;52.674;13.574;2024-02-21T00:58:19;14.93;;;4.93;;
80334;SDS011;69653;52.674;13.574;2024-02-21T01:00:45;19.45;;;5.93;;
80334;SDS011;69653;52.674;13.574;2024-02-21T01:03:10;12.77;;;4.77;;
80334;SDS011;69653;52.674;13.574;2024-02-21T01:05:35;18.33;;;5.57;;
80334;SDS011;69653;52.674;13.574;2024-02-21T01:08:00;12.80;;;4.67;;
80334;SDS011;69653;52.674;13.574;2024-02-21T01:10:25;14.83;;;5.47;;
80334;SDS011;69653;52.674;13.574;2024-02-21T01:12:50;18.67;;;5.53;;
80334;SDS011;69653;52.674;13.574;2024-02-21T01:15:16;16.10;;;5.03;;
80334;SDS011;69653;52.674;13.574;2024-02-21T01:17:41;16.00;;;5.07;;
80334;SDS011;69653;52.674;13.574;2024-02-21T01:20:07;12.88;;;4.25;;
80334;SDS011;69653;52.674;13.574;2024-02-21T01:22:33;15.25;;;4.57;;
80334;SDS011;69653;52.674;13.574;2024-02-21T01:24:58;17.23;;;5.10;;
80334;SDS011;69653;52.674;13.574;2024-02-21T01:27:23;13.10;;;4.20;;
80334;SDS011;69653;52.674;13.574;2024-02-21T01:29:48;13.03;;;4.30;;
80334;SDS011;69653;52.674;13.574;2024-02-21T01:32:14;14.93;;;4.45;;
80334;SDS011;69653;52.674;13.574;2024-02-21T01:34:40;12.45;;;4.63;;
80334;SDS011;69653;52.674;13.574;2024-02-21T01:37:05;11.80;;;4.60;;
80334;SDS011;69653;52.674;13.574;2024-02-21T01:39:32;14.63;;;3.95;;
80334;SDS011;69653;52.674;13.574;2024-02-21T01:41:57;13.33;;;3.90;;
80334;SDS011;69653;52.674;13.574;2024-02-21T01:44:23;15.73;;;4.28;;
80334;SDS011;69653;52.674;13.574;2024-02-21T01:46:48;15.77;;;4.70;;
80334;SDS011;69653;52.674;13.574;2024-02-21T01:49:13;10.87;;;4.17;;
80334;SDS011;69653;52.674;13.574;2024-02-21T01:51:39;12.27;;;4.30;;
80334;SDS011;69653;52.674;13.574;2024-02-21T01:54:04;11.88;;;3.63;;
80334;SDS011;69653;52.674;13.574;2024-02-21T01:56:30;10.00;;;4.00;;
80334;SDS011;69653;52.674;13.574;2024-02-21T01:58:55;18.27;;;4.75;;
80334;SDS011;69653;52.674;13.574;2024-02-21T02:01:21;16.83;;;4.07;;
80334;SDS011;69653;52.674;13.574;2024-02-21T02:03:46;14.07;;;4.63;;
80334;SDS011;69653;52.674;13.574;2024-02-21T02:06:12;9.00;;;3.97;;
80334;SDS011;69653;52.674;13.574;2024-02-21T02:08:37;9.43;;;3.87;;
80334;SDS011;69653;52.674;13.574;2024-02-21T02:11:02;12.73;;;4.03;;
80334;SDS011;69653;52.674;13.574;2024-02-21T02:13:27;13.60;;;4.50;;
80334;SDS011;69653;52.674;13.574;2024-02-21T02:15:53;12.23;;;3.33;;
80334;SDS011;69653;52.674;13.574;2024-02-21T02:18:19;13.53;;;4.10;;
80334;SDS011;69653;52.674;13.574;2024-02-21T02:20:44;8.65;;;3.00;;
80334;SDS011;69653;52.674;13.574;2024-02-21T02:23:23;11.60;;;3.97;;
80334;SDS011;69653;52.674;13.574;2024-02-21T02:25:49;12.73;;;4.53;;
80334;SDS011;69653;52.674;13.574;2024-02-21T02:28:17;12.27;;;3.88;;
80334;SDS011;69653;52.674;13.574;2024-02-21T02:30:42;11.23;;;3.67;;
80334;SDS011;69653;52.674;13.574;2024-02-21T02:33:07;11.10;;;3.38;;
80334;SDS011;69653;52.674;13.574;2024-02-21T02:35:33;13.00;;;4.00;;
80334;SDS011;69653;52.674;13.574;2024-02-21T02:38:00;12.75;;;3.78;;
80334;SDS011;69653;52.674;13.574;2024-02-21T02:40:25;11.13;;;3.45;;
80334;SDS011;69653;52.674;13.574;2024-02-21T02:42:51;10.27;;;4.13;;
80334;SDS011;69653;52.674;13.574;2024-02-21T02:45:16;16.23;;;4.00;;
80334;SDS011;69653;52.674;13.574;2024-02-21T02:47:42;13.40;;;3.80;;
80334;SDS011;69653;52.674;13.574;2024-02-21T02:50:09;13.85;;;4.22;;
80334;SDS011;69653;52.674;13.574;2024-02-21T02:52:34;12.30;;;3.72;;
80334;SDS011;69653;52.674;13.574;2024-02-21T02:54:59;13.00;;;4.83;;
80334;SDS011;69653;52.674;13.574;2024-02-21T02:57:26;18.65;;;4.90;;
80334;SDS011;69653;52.674;13.574;2024-02-21T02:59:51;13.33;;;4.83;;
80334;SDS011;69653;52.674;13.574;2024-02-21T03:02:17;15.63;;;5.23;;
80334;SDS011;69653;52.674;13.574;2024-02-21T03:04:42;12.87;;;4.57;;
80334;SDS011;69653;52.674;13.574;2024-02-21T03:07:07;13.27;;;4.50;;
80334;SDS011;69653;52.674;13.574;2024-02-21T03:09:33;12.47;;;5.07;;
80334;SDS011;69653;52.674;13.574;2024-02-21T03:11:58;15.30;;;4.80;;
80334;SDS011;69653;52.674;13.574;2024-02-21T03:14:28;12.88;;;3.80;;
80334;SDS011;69653;52.674;13.574;2024-02-21T03:16:53;15.60;;;4.85;;
80334;SDS011;69653;52.674;13.574;2024-02-21T03:19:18;16.07;;;4.47;;
80334;SDS011;69653;52.674;13.574;2024-02-21T03:21:43;14.77;;;4.17;;
80334;SDS011;69653;52.674;13.574;2024-02-21T03:24:08;12.37;;;5.10;;
80334;SDS011;69653;52.674;13.574;2024-02-21T03:26:33;13.80;;;4.15;;
80334;SDS011;69653;52.674;13.574;2024-02-21T03:28:59;9.07;;;3.93;;
80334;SDS011;69653;52.674;13.574;2024-02-21T03:31:24;12.73;;;5.70;;
80334;SDS011;69653;52.674;13.574;2024-02-21T03:33:49;14.50;;;5.20;;
80334;SDS011;69653;52.674;13.574;2024-02-21T03:36:15;12.35;;;4.20;;
80334;SDS011;69653;52.674;13.574;2024-02-21T03:38:40;13.15;;;5.68;;
80334;SDS011;69653;52.674;13.574;2024-02-21T03:41:05;13.53;;;5.00;;
80334;SDS011;69653;52.674;13.574;2024-02-21T03:43:30;11.10;;;5.10;;
80334;SDS011;69653;52.674;13.574;2024-02-21T03:45:56;14.90;;;4.93;;
80334;SDS011;69653;52.674;13.574;2024-02-21T03:48:21;15.10;;;6.40;;
80334;SDS011;69653;52.674;13.574;2024-02-21T03:50:46;17.57;;;6.60;;
80334;SDS011;69653;52.674;13.574;2024-02-21T03:53:11;14.63;;;5.43;;
80334;SDS011;69653;52.674;13.574;2024-02-21T03:55:37;21.77;;;6.03;;
80334;SDS011;69653;52.674;13.574;2024-02-21T03:58:02;17.70;;;5.67;;
80334;SDS011;69653;52.674;13.574;2024-02-21T04:00:27;15.53;;;6.83;;
80334;SDS011;69653;52.674;13.574;2024-02-21T04:02:53;19.73;;;6.17;;
80334;SDS011;69653;52.674;13.574;2024-02-21T04:05:18;16.33;;;5.83;;
80334;SDS011;69653;52.674;13.574;2024-02-21T04:07:44;14.68;;;5.70;;
80334;SDS011;69653;52.674;13.574;2024-02-21T04:10:09;19.30;;;7.40;;
80334;SDS011;69653;52.674;13.574;2024-02-21T04:12:34;17.53;;;7.03;;
80334;SDS011;69653;52.674;13.574;2024-02-21T04:14:59;14.17;;;6.20;;
80334;SDS011;69653;52.674;13.574;2024-02-21T04:17:25;16.37;;;6.53;;
80334;SDS011;69653;52.674;13.574;2024-02-21T04:19:50;19.00;;;7.63;;
80334;SDS011;69653;52.674;13.574;2024-02-21T04:22:15;18.40;;;6.60;;
80334;SDS011;69653;52.674;13.574;2024-02-21T04:24:40;16.20;;;6.87;;
80334;SDS011;69653;52.674;13.574;2024-02-21T04:27:05;18.83;;;7.77;;
80334;SDS011;69653;52.674;13.574;2024-02-21T04:29:31;17.73;;;7.37;;
80334;SDS011;69653;52.674;13.574;2024-02-21T04:31:56;19.80;;;7.00;;
80334;SDS011;69653;52.674;13.574;2024-02-21T04:34:21;18.67;;;8.07;;
80334;SDS011;69653;52.674;13.574;2024-02-21T04:36:47;19.83;;;7.73;;
80334;SDS011;69653;52.674;13.574;2024-02-21T04:39:12;19.10;;;6.87;;
80334;SDS011;69653;52.674;13.574;2024-02-21T04:41:37;17.97;;;7.20;;
80334;SDS011;69653;52.674;13.574;2024-02-21T04:44:02;16.17;;;6.50;;
80334;SDS011;69653;52.674;13.574;2024-02-21T04:46:28;19.27;;;7.00;;
80334;SDS011;69653;52.674;13.574;2024-02-21T04:48:54;23.20;;;7.13;;
80334;SDS011;69653;52.674;13.574;2024-02-21T04:51:19;18.95;;;7.10;;
80334;SDS011;69653;52.674;13.574;2024-02-21T04:53:44;17.87;;;6.17;;
80334;SDS011;69653;52.674;13.574;2024-02-21T04:56:09;19.73;;;6.90;;
80334;SDS011;69653;52.674;13.574;2024-02-21T04:58:37;20.20;;;7.07;;
80334;SDS011;69653;52.674;13.574;2024-02-21T05:01:02;17.27;;;6.25;;
80334;SDS011;69653;52.674;13.574;2024-02-21T05:03:27;18.33;;;8.27;;
80334;SDS011;69653;52.674;13.574;2024-02-21T05:05:53;20.67;;;6.83;;
80334;SDS011;69653;52.674;13.574;2024-02-21T05:08:18;15.47;;;7.97;;
80334;SDS011;69653;52.674;13.574;2024-02-21T05:10:43;21.53;;;8.00;;
80334;SDS011;69653;52.674;13.574;2024-02-21T05:13:08;21.97;;;7.97;;
80334;SDS011;69653;52.674;13.574;2024-02-21T05:15:34;17.77;;;6.93;;
80334;SDS011;69653;52.674;13.574;2024-02-21T05:17:59;15.70;;;5.87;;
80334;SDS011;69653;52.674;13.574;2024-02-21T05:20:24;19.40;;;8.17;;
80334;SDS011;69653;52.674;13.574;2024-02-21T05:22:49;19.33;;;7.47;;
80334;SDS011;69653;52.674;13.574;2024-02-21T05:25:14;18.25;;;6.97;;
80334;SDS011;69653;52.674;13.574;2024-02-21T05:27:39;19.47;;;7.50;;
80334;SDS011;69653;52.674;13.574;2024-02-21T05:30:05;13.70;;;5.87;;
80334;SDS011;69653;52.674;13.574;2024-02-21T05:32:31;18.95;;;7.63;;
80334;SDS011;69653;52.674;13.574;2024-02-21T05:34:58;19.13;;;6.38;;
80334;SDS011;69653;52.674;13.574;2024-02-21T05:37:23;19.95;;;6.97;;
80334;SDS011;69653;52.674;13.574;2024-02-21T05:39:51;21.33;;;7.37;;
80334;SDS011;69653;52.674;13.574;2024-02-21T05:42:16;17.83;;;7.28;;
80334;SDS011;69653;52.674;13.574;2024-02-21T05:44:41;17.47;;;6.67;;
80334;SDS011;69653;52.674;13.574;2024-02-21T05:47:06;21.00;;;7.07;;
80334;SDS011;69653;52.674;13.574;2024-02-21T05:49:35;18.35;;;6.95;;
80334;SDS011;69653;52.674;13.574;2024-02-21T05:52:00;16.93;;;6.27;;
80334;SDS011;69653;52.674;13.574;2024-02-21T05:54:25;16.10;;;7.50;;
80334;SDS011;69653;52.674;13.574;2024-02-21T05:56:50;19.53;;;7.70;;
80334;SDS011;69653;52.674;13.574;2024-02-21T05:59:17;19.00;;;7.85;;
80334;SDS011;69653;52.674;13.574;2024-02-21T06:01:42;22.93;;;7.73;;
80334;SDS011;69653;52.674;13.574;2024-02-21T06:04:07;19.23;;;7.20;;
80334;SDS011;69653;52.674;13.574;2024-02-21T06:06:32;19.37;;;7.37;;
80334;SDS011;69653;52.674;13.574;2024-02-21T06:08:58;17.55;;;6.70;;
80334;SDS011;69653;52.674;13.574;2024-02-21T06:11:24;19.20;;;7.75;;
80334;SDS011;69653;52.674;13.574;2024-02-21T06:13:49;21.80;;;7.43;;
80334;SDS011;69653;52.674;13.574;2024-02-21T06:16:14;17.60;;;7.63;;
80334;SDS011;69653;52.674;13.574;2024-02-21T06:18:39;17.77;;;6.60;;
80334;SDS011;69653;52.674;13.574;2024-02-21T06:21:05;17.63;;;5.70;;
80334;SDS011;69653;52.674;13.574;2024-02-21T06:23:30;20.37;;;7.50;;
80334;SDS011;69653;52.674;13.574;2024-02-21T06:25:55;17.27;;;7.63;;
80334;SDS011;69653;52.674;13.574;2024-02-21T06:28:20;20.98;;;7.13;;
80334;SDS011;69653;52.674;13.574;2024-02-21T06:30:45;18.45;;;6.13;;
80334;SDS011;69653;52.674;13.574;2024-02-21T06:33:10;18.03;;;7.90;;
80334;SDS011;69653;52.674;13.574;2024-02-21T06:35:36;20.77;;;7.03;;
80334;SDS011;69653;52.674;13.574;2024-02-21T06:38:01;21.73;;;6.67;;
80334;SDS011;69653;52.674;13.574;2024-02-21T06:40:26;17.63;;;6.77;;
80334;SDS011;69653;52.674;13.574;2024-02-21T06:42:51;18.23;;;7.13;;
80334;SDS011;69653;52.674;13.574;2024-02-21T06:45:17;18.60;;;7.47;;
80334;SDS011;69653;52.674;13.574;2024-02-21T06:47:42;17.93;;;7.00;;
80334;SDS011;69653;52.674;13.574;2024-02-21T06:50:08;17.52;;;6.22;;
80334;SDS011;69653;52.674;13.574;2024-02-21T06:52:33;16.98;;;7.13;;
80334;SDS011;69653;52.674;13.574;2024-02-21T06:54:59;19.07;;;7.80;;
80334;SDS011;69653;52.674;13.574;2024-02-21T06:57:24;17.17;;;7.37;;
80334;SDS011;69653;52.674;13.574;2024-02-21T06:59:49;14.87;;;6.00;;
80334;SDS011;69653;52.674;13.574;2024-02-21T07:02:14;15.50;;;6.50;;
80334;SDS011;69653;52.674;13.574;2024-02-21T07:04:40;15.70;;;5.70;;
80334;SDS011;69653;52.674;13.574;2024-02-21T07:07:05;14.87;;;5.90;;
80334;SDS011;69653;52.674;13.574;2024-02-21T07:09:30;19.97;;;6.77;;
80334;SDS011;69653;52.674;13.574;2024-02-21T07:11:57;16.23;;;6.55;;
80334;SDS011;69653;52.674;13.574;2024-02-21T07:14:22;17.77;;;7.00;;
80334;SDS011;69653;52.674;13.574;2024-02-21T07:16:47;17.40;;;6.67;;
80334;SDS011;69653;52.674;13.574;2024-02-21T07:19:12;17.03;;;7.57;;
80334;SDS011;69653;52.674;13.574;2024-02-21T07:21:37;18.00;;;6.80;;
80334;SDS011;69653;52.674;13.574;2024-02-21T07:24:04;20.00;;;7.65;;
80334;SDS011;69653;52.674;13.574;2024-02-21T07:26:31;16.30;;;7.80;;
80334;SDS011;69653;52.674;13.574;2024-02-21T07:28:56;18.13;;;7.07;;
80334;SDS011;69653;52.674;13.574;2024-02-21T07:31:21;13.93;;;5.97;;
80334;SDS011;69653;52.674;13.574;2024-02-21T07:33:46;23.00;;;8.83;;
80334;SDS011;69653;52.674;13.574;2024-02-21T07:36:11;18.33;;;7.37;;
80334;SDS011;69653;52.674;13.574;2024-02-21T07:38:37;20.67;;;8.57;;
80334;SDS011;69653;52.674;13.574;2024-02-21T07:41:02;17.70;;;7.10;;
80334;SDS011;69653;52.674;13.574;2024-02-21T07:43:29;19.75;;;8.43;;
80334;SDS011;69653;52.674;13.574;2024-02-21T07:45:54;21.23;;;8.13;;
80334;SDS011;69653;52.674;13.574;2024-02-21T07:48:19;14.60;;;6.73;;
80334;SDS011;69653;52.674;13.574;2024-02-21T07:50:44;20.07;;;8.43;;
80334;SDS011;69653;52.674;13.574;2024-02-21T07:53:09;15.53;;;5.93;;
80334;SDS011;69653;52.674;13.574;2024-02-21T07:55:35;19.23;;;8.10;;
80334;SDS011;69653;52.674;13.574;2024-02-21T07:58:00;14.33;;;7.13;;
80334;SDS011;69653;52.674;13.574;2024-02-21T08:00:25;21.40;;;7.50;;
80334;SDS011;69653;52.674;13.574;2024-02-21T08:02:50;17.23;;;8.30;;
80334;SDS011;69653;52.674;13.574;2024-02-21T08:05:15;12.67;;;6.53;;
80334;SDS011;69653;52.674;13.574;2024-02-21T08:07:41;17.77;;;7.03;;
80334;SDS011;69653;52.674;13.574;2024-02-21T08:10:06;18.07;;;6.67;;
80334;SDS011;69653;52.674;13.574;2024-02-21T08:12:34;13.15;;;6.18;;
80334;SDS011;69653;52.674;13.574;2024-02-21T08:15:00;19.63;;;8.10;;
80334;SDS011;69653;52.674;13.574;2024-02-21T08:17:25;17.92;;;6.95;;
80334;SDS011;69653;52.674;13.574;2024-02-21T08:19:50;16.27;;;6.37;;
80334;SDS011;69653;52.674;13.574;2024-02-21T08:22:16;13.00;;;6.33;;
80334;SDS011;69653;52.674;13.574;2024-02-21T08:24:41;17.23;;;6.53;;
80334;SDS011;69653;52.674;13.574;2024-02-21T08:27:06;15.90;;;6.50;;
80334;SDS011;69653;52.674;13.574;2024-02-21T08:29:32;13.35;;;5.90;;
80334;SDS011;69653;52.674;13.574;2024-02-21T08:31:57;15.97;;;7.10;;
80334;SDS011;69653;52.674;13.574;2024-02-21T08:34:22;13.98;;;6.20;;
80334;SDS011;69653;52.674;13.574;2024-02-21T08:36:48;14.37;;;6.03;;
80334;SDS011;69653;52.674;13.574;2024-02-21T08:39:13;15.60;;;6.28;;
80334;SDS011;69653;52.674;13.574;2024-02-21T08:41:41;19.55;;;7.28;;
80334;SDS011;69653;52.674;13.574;2024-02-21T08:44:06;15.73;;;6.30;;
80334;SDS011;69653;52.674;13.574;2024-02-21T08:46:32;13.38;;;6.03;;
80334;SDS011;69653;52.674;13.574;2024-02-21T08:48:57;14.77;;;6.27;;
80334;SDS011;69653;52.674;13.574;2024-02-21T08:51:22;13.00;;;5.53;;
80334;SDS011;69653;52.674;13.574;2024-02-21T08:53:48;17.03;;;6.87;;
80334;SDS011;69653;52.674;13.574;2024-02-21T08:56:13;15.80;;;6.82;;
80334;SDS011;69653;52.674;13.574;2024-02-21T08:58:39;14.93;;;6.27;;
80334;SDS011;69653;52.674;13.574;2024-02-21T09:01:05;13.00;;;5.38;;
80334;SDS011;69653;52.674;13.574;2024-02-21T09:03:31;18.00;;;6.07;;
80334;SDS011;69653;52.674;13.574;2024-02-21T09:05:56;17.50;;;6.43;;
80334;SDS011;69653;52.674;13.574;2024-02-21T09:08:21;17.10;;;6.27;;
80334;SDS011;69653;52.674;13.574;2024-02-21T09:10:47;14.98;;;7.63;;
80334;SDS011;69653;52.674;13.574;2024-02-21T09:13:12;13.35;;;6.40;;
80334;SDS011;69653;52.674;13.574;2024-02-21T09:15:37;16.37;;;6.40;;
80334;SDS011;69653;52.674;13.574;2024-02-21T09:18:02;16.87;;;6.77;;
80334;SDS011;69653;52.674;13.574;2024-02-21T09:20:28;17.87;;;6.60;;
80334;SDS011;69653;52.674;13.574;2024-02-21T09:22:54;16.55;;;7.00;;
80334;SDS011;69653;52.674;13.574;2024-02-21T09:25:19;15.77;;;6.23;;
80334;SDS011;69653;52.674;13.574;2024-02-21T09:27:44;14.57;;;5.27;;
80334;SDS011;69653;52.674;13.574;2024-02-21T09:30:10;13.77;;;7.05;;
80334;SDS011;69653;52.674;13.574;2024-02-21T09:32:35;14.83;;;7.17;;
80334;SDS011;69653;52.674;13.574;2024-02-21T09:35:01;22.35;;;8.48;;
80334;SDS011;69653;52.674;13.574;2024-02-21T09:37:26;13.47;;;5.83;;
80334;SDS011;69653;52.674;13.574;2024-02-21T09:39:51;12.27;;;5.43;;
80334;SDS011;69653;52.674;13.574;2024-02-21T09:42:19;14.32;;;6.35;;
80334;SDS011;69653;52.674;13.574;2024-02-21T09:44:45;13.65;;;6.28;;
80334;SDS011;69653;52.674;13.574;2024-02-21T09:47:12;15.68;;;7.13;;
80334;SDS011;69653;52.674;13.574;2024-02-21T09:49:41;12.55;;;5.97;;
80334;SDS011;69653;52.674;13.574;2024-02-21T09:52:07;19.95;;;8.80;;
80334;SDS011;69653;52.674;13.574;2024-02-21T09:54:33;16.50;;;7.70;;
80334;SDS011;69653;52.674;13.574;2024-02-21T09:57:02;16.33;;;7.20;;
80334;SDS011;69653;52.674;13.574;2024-02-21T09:59:27;17.55;;;7.40;;
80334;SDS011;69653;52.674;13.574;2024-02-21T10:01:53;13.23;;;6.05;;
80334;SDS011;69653;52.674;13.574;2024-02-21T10:04:19;14.13;;;6.60;;
80334;SDS011;69653;52.674;13.574;2024-02-21T10:06:44;21.63;;;7.57;;
80334;SDS011;69653;52.674;13.574;2024-02-21T10:09:19;14.73;;;7.30;;
80334;SDS011;69653;52.674;13.574;2024-02-21T10:11:44;13.20;;;6.45;;
80334;SDS011;69653;52.674;13.574;2024-02-21T10:14:09;10.43;;;5.57;;
80334;SDS011;69653;52.674;13.574;2024-02-21T10:16:35;15.47;;;7.97;;
80334;SDS011;69653;52.674;13.574;2024-02-21T10:19:01;12.23;;;6.35;;
80334;SDS011;69653;52.674;13.574;2024-02-21T10:21:26;16.07;;;7.53;;
80334;SDS011;69653;52.674;13.574;2024-02-21T10:23:51;16.60;;;6.27;;
80334;SDS011;69653;52.674;13.574;2024-02-21T10:26:17;16.38;;;6.30;;
80334;SDS011;69653;52.674;13.574;2024-02-21T10:28:43;12.93;;;6.10;;
80334;SDS011;69653;52.674;13.574;2024-02-21T10:31:10;16.23;;;6.55;;
80334;SDS011;69653;52.674;13.574;2024-02-21T10:33:36;14.85;;;7.40;;
80334;SDS011;69653;52.674;13.574;2024-02-21T10:36:06;16.77;;;7.50;;
80334;SDS011;69653;52.674;13.574;2024-02-21T10:38:31;10.77;;;5.70;;
80334;SDS011;69653;52.674;13.574;2024-02-21T10:40:58;12.15;;;5.80;;
80334;SDS011;69653;52.674;13.574;2024-02-21T10:43:24;16.50;;;6.47;;
80334;SDS011;69653;52.674;13.574;2024-02-21T10:45:50;14.15;;;6.68;;
80334;SDS011;69653;52.674;13.574;2024-02-21T10:48:17;12.07;;;6.15;;
80334;SDS011;69653;52.674;13.574;2024-02-21T10:50:57;14.27;;;7.13;;
80334;SDS011;69653;52.674;13.574;2024-02-21T10:53:31;11.90;;;5.57;;
80334;SDS011;69653;52.674;13.574;2024-02-21T10:58:41;16.15;;;5.97;;
80334;SDS011;69653;52.674;13.574;2024-02-21T11:01:07;11.65;;;5.95;;
80334;SDS011;69653;52.674;13.574;2024-02-21T11:03:33;11.13;;;5.47;;
80334;SDS011;69653;52.674;13.574;2024-02-21T11:05:58;15.50;;;6.20;;
80334;SDS011;69653;52.674;13.574;2024-02-21T11:08:24;14.27;;;6.05;;
80334;SDS011;69653;52.674;13.574;2024-02-21T11:10:50;19.10;;;6.50;;
80334;SDS011;69653;52.674;13.574;2024-02-21T11:13:15;11.30;;;5.10;;
80334;SDS011;69653;52.674;13.574;2024-02-21T11:15:40;9.23;;;4.67;;
80334;SDS011;69653;52.674;13.574;2024-02-21T11:18:05;18.47;;;5.53;;
80334;SDS011;69653;52.674;13.574;2024-02-21T11:20:34;11.53;;;4.77;;
80334;SDS011;69653;52.674;13.574;2024-02-21T11:23:00;11.13;;;5.22;;
80334;SDS011;69653;52.674;13.574;2024-02-21T11:25:26;12.63;;;6.03;;
80334;SDS011;69653;52.674;13.574;2024-02-21T11:27:58;9.90;;;5.03;;
80334;SDS011;69653;52.674;13.574;2024-02-21T11:30:26;10.35;;;5.15;;
80334;SDS011;69653;52.674;13.574;2024-02-21T11:32:58;10.80;;;5.32;;
80334;SDS011;69653;52.674;13.574;2024-02-21T11:35:23;9.50;;;5.13;;
80334;SDS011;69653;52.674;13.574;2024-02-21T11:37:48;10.03;;;5.23;;
80334;SDS011;69653;52.674;13.574;2024-02-21T11:40:14;9.47;;;4.80;;
80334;SDS011;69653;52.674;13.574;2024-02-21T11:42:39;8.90;;;4.63;;
80334;SDS011;69653;52.674;13.574;2024-02-21T11:45:06;9.87;;;5.03;;
80334;SDS011;69653;52.674;13.574;2024-02-21T11:47:31;13.23;;;6.03;;
80334;SDS011;69653;52.674;13.574;2024-02-21T11:49:56;9.40;;;3.93;;
80334;SDS011;69653;52.674;13.574;2024-02-21T11:52:22;9.70;;;3.87;;
80334;SDS011;69653;52.674;13.574;2024-02-21T11:54:49;10.93;;;4.63;;
80334;SDS011;69653;52.674;13.574;2024-02-21T11:57:15;8.35;;;3.85;;
80334;SDS011;69653;52.674;13.574;2024-02-21T11:59:40;10.93;;;4.93;;
80334;SDS011;69653;52.674;13.574;2024-02-21T12:02:06;8.15;;;4.25;;
80334;SDS011;69653;52.674;13.574;2024-02-21T12:04:31;10.70;;;4.40;;
80334;SDS011;69653;52.674;13.574;2024-02-21T12:06:57;11.00;;;4.13;;
80334;SDS011;69653;52.674;13.574;2024-02-21T12:09:23;8.07;;;3.95;;
80334;SDS011;69653;52.674;13.574;2024-02-21T12:11:56;6.47;;;3.33;;
80334;SDS011;69653;52.674;13.574;2024-02-21T12:14:21;10.30;;;4.00;;
80334;SDS011;69653;52.674;13.574;2024-02-21T12:16:47;9.45;;;4.15;;
80334;SDS011;69653;52.674;13.574;2024-02-21T12:19:13;5.88;;;3.47;;
80334;SDS011;69653;52.674;13.574;2024-02-21T12:21:39;7.57;;;3.67;;
80334;SDS011;69653;52.674;13.574;2024-02-21T12:24:14;9.15;;;3.35;;
80334;SDS011;69653;52.674;13.574;2024-02-21T12:26:40;7.10;;;3.42;;
80334;SDS011;69653;52.674;13.574;2024-02-21T12:29:05;8.27;;;4.03;;
80334;SDS011;69653;52.674;13.574;2024-02-21T12:31:30;9.47;;;4.00;;
80334;SDS011;69653;52.674;13.574;2024-02-21T12:33:56;7.32;;;3.85;;
80334;SDS011;69653;52.674;13.574;2024-02-21T12:36:21;7.47;;;3.77;;
80334;SDS011;69653;52.674;13.574;2024-02-21T12:38:47;10.53;;;3.53;;
80334;SDS011;69653;52.674;13.574;2024-02-21T12:41:13;5.93;;;3.17;;
80334;SDS011;69653;52.674;13.574;2024-02-21T12:43:39;8.17;;;3.57;;
80334;SDS011;69653;52.674;13.574;2024-02-21T12:46:04;7.40;;;3.17;;
80334;SDS011;69653;52.674;13.574;2024-02-21T12:48:29;7.47;;;2.83;;
80334;SDS011;69653;52.674;13.574;2024-02-21T12:50:54;8.93;;;3.53;;
80334;SDS011;69653;52.674;13.574;2024-02-21T12:53:19;5.77;;;3.33;;
80334;SDS011;69653;52.674;13.574;2024-02-21T12:55:49;6.15;;;2.65;;
80334;SDS011;69653;52.674;13.574;2024-02-21T12:58:15;5.65;;;2.70;;
80334;SDS011;69653;52.674;13.574;2024-02-21T13:00:40;6.25;;;2.80;;
80334;SDS011;69653;52.674;13.574;2024-02-21T13:03:06;9.10;;;3.30;;
80334;SDS011;69653;52.674;13.574;2024-02-21T13:05:31;8.70;;;3.60;;
80334;SDS011;69653;52.674;13.574;2024-02-21T13:07:57;7.40;;;3.15;;
80334;SDS011;69653;52.674;13.574;2024-02-21T13:10:22;5.82;;;2.47;;
80334;SDS011;69653;52.674;13.574;2024-02-21T13:12:47;8.00;;;3.30;;
80334;SDS011;69653;52.674;13.574;2024-02-21T13:15:12;7.70;;;3.53;;
80334;SDS011;69653;52.674;13.574;2024-02-21T13:17:38;5.53;;;2.77;;
80334;SDS011;69653;52.674;13.574;2024-02-21T13:20:03;8.23;;;3.28;;
80334;SDS011;69653;52.674;13.574;2024-02-21T13:22:28;9.95;;;3.17;;
80334;SDS011;69653;52.674;13.574;2024-02-21T13:24:54;6.00;;;2.23;;
80334;SDS011;69653;52.674;13.574;2024-02-21T13:27:19;5.37;;;2.50;;
80334;SDS011;69653;52.674;13.574;2024-02-21T13:29:44;6.33;;;2.40;;
80334;SDS011;69653;52.674;13.574;2024-02-21T13:32:10;5.15;;;2.55;;
80334;SDS011;69653;52.674;13.574;2024-02-21T13:34:35;7.70;;;2.60;;
80334;SDS011;69653;52.674;13.574;2024-02-21T13:37:00;5.20;;;2.60;;
80334;SDS011;69653;52.674;13.574;2024-02-21T13:39:26;5.07;;;2.53;;
80334;SDS011;69653;52.674;13.574;2024-02-21T13:41:51;5.67;;;2.30;;
80334;SDS011;69653;52.674;13.574;2024-02-21T13:44:16;6.70;;;2.53;;
80334;SDS011;69653;52.674;13.574;2024-02-21T13:46:41;6.00;;;2.43;;
80334;SDS011;69653;52.674;13.574;2024-02-21T13:49:06;5.87;;;2.63;;
80334;SDS011;69653;52.674;13.574;2024-02-21T13:51:32;6.43;;;2.60;;
80334;SDS011;69653;52.674;13.574;2024-02-21T13:53:58;6.13;;;2.85;;
80334;SDS011;69653;52.674;13.574;2024-02-21T13:56:24;3.97;;;2.03;;
80334;SDS011;69653;52.674;13.574;2024-02-21T13:58:49;5.20;;;2.40;;
80334;SDS011;69653;52.674;13.574;2024-02-21T14:01:14;7.53;;;2.80;;
80334;SDS011;69653;52.674;13.574;2024-02-21T14:03:39;5.33;;;2.40;;
80334;SDS011;69653;52.674;13.574;2024-02-21T14:06:05;5.93;;;2.92;;
80334;SDS011;69653;52.674;13.574;2024-02-21T14:08:31;6.40;;;2.73;;
80334;SDS011;69653;52.674;13.574;2024-02-21T14:10:56;6.73;;;3.03;;
80334;SDS011;69653;52.674;13.574;2024-02-21T14:13:24;6.07;;;2.63;;
80334;SDS011;69653;52.674;13.574;2024-02-21T14:15:50;4.40;;;2.42;;